ZBYN Airport Information

Runway Information
Runway 13 Length 10500 ft width 148 ft
Elevation 2546 ft Threshold 0 ft Heading 127
Runway 31 Length 10500 ft Width 148 ft
Elevation 2575 ft Threshold 0 ft Heading 307
Airport Frequencies
Type TWR Name TAIYUAN TW Frequency 118.25 MHZ
Airport Navaids
Type NDB Name Wolong Frequency 210 KHZ
Type VOR-DME Name Taiyuan Frequency 113100 KHZ
Type NDB Name Zhonghao Frequency 439 KHZ
Airport Weather Information & NOTAM
ADDS - METARS form results

(1149 UTC 24 September 2020)
Data provider http://aviationweather.gov/metar/data/
 
METAR text: ZBYN 241130Z 00000MPS CAVOK 16/11 Q1016 NOSIG
Conditions at: ZBYN (TAIYUAN/WUSU , CN) observed 1130 UTC 24 September 2020
Temperature: 16.0°C (61°F)
Dewpoint: 11.0°C (52°F) [RH = 72%]
Pressure (altimeter): 30.00 inches Hg (1016.0 mb)
Winds: calm
Visibility: 6 or more miles (10+ km)
Ceiling: ceiling and visibility are OK
Clouds: unknown
Weather: no significant weather observed at this time

METAR text: ZBYN 241100Z 15001MPS CAVOK 17/11 Q1016 NOSIG
Conditions at: ZBYN (TAIYUAN/WUSU , CN) observed 1100 UTC 24 September 2020
Temperature: 17.0°C (63°F)
Dewpoint: 11.0°C (52°F) [RH = 68%]
Pressure (altimeter): 30.00 inches Hg (1016.0 mb)
Winds: from the SSE (150 degrees) at 2 MPH (2 knots; 1.0 m/s)
Visibility: 6 or more miles (10+ km)
Ceiling: ceiling and visibility are OK
Clouds: unknown
Weather: no significant weather observed at this time

Forecast for: ZBYN (TAIYUAN/WUSU , CN)
Text: TAF ZBYN 240904Z 2412/2512 09003MPS 3000 HZ NSC TX24/2507Z TN11/2421Z
Forecast period: 1200 UTC 24 September 2020 to 1200 UTC 25 September 2020
Forecast type: FROM: standard forecast or significant change
Winds: from the E (90 degrees) at 7 MPH (6 knots; 3.1 m/s)
Visibility: 1.86 miles (2.99 km)
Ceiling: unknown
Clouds: missing
Weather: HZ  (haze)